sensor_id;sensor_type;location;lat;lon;timestamp;P1;durP1;ratioP1;P2;durP2;ratioP2
739;SDS011;354;42.694;23.336;2023-06-04T00:02:10;9.37;;;8.63;;
739;SDS011;354;42.694;23.336;2023-06-04T00:05:22;8.20;;;7.60;;
739;SDS011;354;42.694;23.336;2023-06-04T00:08:27;9.23;;;8.53;;
739;SDS011;354;42.694;23.336;2023-06-04T00:11:17;8.03;;;7.53;;
739;SDS011;354;42.694;23.336;2023-06-04T00:14:10;9.10;;;8.27;;
739;SDS011;354;42.694;23.336;2023-06-04T00:16:56;8.33;;;7.83;;
739;SDS011;354;42.694;23.336;2023-06-04T00:19:43;7.60;;;7.13;;
739;SDS011;354;42.694;23.336;2023-06-04T00:22:49;8.67;;;8.17;;
739;SDS011;354;42.694;23.336;2023-06-04T00:25:16;7.50;;;7.03;;
739;SDS011;354;42.694;23.336;2023-06-04T00:27:52;7.33;;;6.63;;
739;SDS011;354;42.694;23.336;2023-06-04T00:30:33;8.03;;;7.33;;
739;SDS011;354;42.694;23.336;2023-06-04T00:33:18;8.70;;;8.03;;
739;SDS011;354;42.694;23.336;2023-06-04T00:35:45;8.40;;;7.90;;
739;SDS011;354;42.694;23.336;2023-06-04T00:38:30;8.93;;;8.43;;
739;SDS011;354;42.694;23.336;2023-06-04T00:41:16;8.63;;;8.13;;
739;SDS011;354;42.694;23.336;2023-06-04T00:44:02;8.00;;;7.40;;
739;SDS011;354;42.694;23.336;2023-06-04T00:46:50;7.77;;;7.27;;
739;SDS011;354;42.694;23.336;2023-06-04T00:49:22;8.13;;;7.63;;
739;SDS011;354;42.694;23.336;2023-06-04T00:52:11;8.93;;;8.13;;
739;SDS011;354;42.694;23.336;2023-06-04T00:55:09;8.30;;;7.80;;
739;SDS011;354;42.694;23.336;2023-06-04T00:57:44;8.57;;;8.07;;
739;SDS011;354;42.694;23.336;2023-06-04T01:00:30;8.73;;;8.10;;
739;SDS011;354;42.694;23.336;2023-06-04T01:03:37;7.10;;;6.60;;
739;SDS011;354;42.694;23.336;2023-06-04T01:06:18;8.27;;;7.60;;
739;SDS011;354;42.694;23.336;2023-06-04T01:08:51;8.67;;;8.07;;
739;SDS011;354;42.694;23.336;2023-06-04T01:11:37;7.20;;;6.70;;
739;SDS011;354;42.694;23.336;2023-06-04T01:14:23;7.40;;;7.00;;
739;SDS011;354;42.694;23.336;2023-06-04T01:17:14;7.40;;;6.80;;
739;SDS011;354;42.694;23.336;2023-06-04T01:26:05;8.37;;;7.60;;
739;SDS011;354;42.694;23.336;2023-06-04T01:28:55;7.53;;;6.97;;
739;SDS011;354;42.694;23.336;2023-06-04T01:31:23;7.60;;;7.10;;
739;SDS011;354;42.694;23.336;2023-06-04T01:33:54;6.83;;;6.43;;
739;SDS011;354;42.694;23.336;2023-06-04T01:36:41;6.97;;;6.47;;
739;SDS011;354;42.694;23.336;2023-06-04T01:39:13;7.97;;;7.27;;
739;SDS011;354;42.694;23.336;2023-06-04T01:42:01;7.87;;;7.37;;
739;SDS011;354;42.694;23.336;2023-06-04T01:44:52;7.40;;;6.80;;
739;SDS011;354;42.694;23.336;2023-06-04T01:47:33;8.13;;;7.63;;
739;SDS011;354;42.694;23.336;2023-06-04T01:50:39;7.37;;;6.97;;
739;SDS011;354;42.694;23.336;2023-06-04T01:53:20;8.20;;;7.50;;
739;SDS011;354;42.694;23.336;2023-06-04T01:55:52;8.37;;;7.67;;
739;SDS011;354;42.694;23.336;2023-06-04T01:58:39;6.50;;;5.90;;
739;SDS011;354;42.694;23.336;2023-06-04T02:01:06;7.03;;;6.53;;
739;SDS011;354;42.694;23.336;2023-06-04T02:03:52;7.10;;;6.70;;
739;SDS011;354;42.694;23.336;2023-06-04T02:06:18;8.00;;;7.40;;
739;SDS011;354;42.694;23.336;2023-06-04T02:08:45;8.30;;;7.70;;
739;SDS011;354;42.694;23.336;2023-06-04T02:11:15;7.07;;;6.67;;
739;SDS011;354;42.694;23.336;2023-06-04T02:13:48;7.87;;;7.37;;
739;SDS011;354;42.694;23.336;2023-06-04T02:16:54;7.37;;;6.97;;
739;SDS011;354;42.694;23.336;2023-06-04T02:20:12;7.87;;;7.37;;
739;SDS011;354;42.694;23.336;2023-06-04T02:22:58;7.70;;;7.20;;
739;SDS011;354;42.694;23.336;2023-06-04T02:25:45;8.43;;;7.83;;
739;SDS011;354;42.694;23.336;2023-06-04T02:28:27;8.80;;;8.30;;
739;SDS011;354;42.694;23.336;2023-06-04T02:30:56;7.83;;;7.23;;
739;SDS011;354;42.694;23.336;2023-06-04T02:33:43;8.10;;;7.60;;
739;SDS011;354;42.694;23.336;2023-06-04T02:36:23;7.43;;;6.93;;
739;SDS011;354;42.694;23.336;2023-06-04T02:38:57;7.67;;;7.17;;
739;SDS011;354;42.694;23.336;2023-06-04T02:41:43;7.70;;;7.20;;
739;SDS011;354;42.694;23.336;2023-06-04T02:44:28;7.03;;;6.63;;
739;SDS011;354;42.694;23.336;2023-06-04T02:47:34;8.23;;;7.80;;
739;SDS011;354;42.694;23.336;2023-06-04T02:50:37;7.73;;;7.33;;
739;SDS011;354;42.694;23.336;2023-06-04T02:53:38;7.60;;;7.20;;
739;SDS011;354;42.694;23.336;2023-06-04T02:56:39;8.20;;;7.70;;
739;SDS011;354;42.694;23.336;2023-06-04T02:59:21;8.80;;;8.20;;
739;SDS011;354;42.694;23.336;2023-06-04T03:02:06;7.90;;;7.40;;
739;SDS011;354;42.694;23.336;2023-06-04T03:04:53;7.53;;;7.03;;
739;SDS011;354;42.694;23.336;2023-06-04T03:07:40;8.97;;;8.37;;
739;SDS011;354;42.694;23.336;2023-06-04T03:10:11;7.80;;;7.40;;
739;SDS011;354;42.694;23.336;2023-06-04T03:13:02;8.50;;;8.00;;
739;SDS011;354;42.694;23.336;2023-06-04T03:15:29;7.27;;;6.87;;
739;SDS011;354;42.694;23.336;2023-06-04T03:18:35;8.30;;;7.60;;
739;SDS011;354;42.694;23.336;2023-06-04T03:21:21;8.77;;;8.27;;
739;SDS011;354;42.694;23.336;2023-06-04T03:23:50;7.70;;;7.30;;
739;SDS011;354;42.694;23.336;2023-06-04T03:26:18;9.57;;;8.73;;
739;SDS011;354;42.694;23.336;2023-06-04T03:29:03;8.13;;;7.53;;
739;SDS011;354;42.694;23.336;2023-06-04T03:31:49;9.00;;;8.20;;
739;SDS011;354;42.694;23.336;2023-06-04T03:34:16;7.33;;;6.83;;
739;SDS011;354;42.694;23.336;2023-06-04T03:37:03;8.33;;;7.83;;
739;SDS011;354;42.694;23.336;2023-06-04T03:39:52;9.07;;;8.57;;
739;SDS011;354;42.694;23.336;2023-06-04T03:42:23;7.97;;;7.47;;
739;SDS011;354;42.694;23.336;2023-06-04T03:44:49;8.37;;;7.87;;
739;SDS011;354;42.694;23.336;2023-06-04T03:47:16;8.67;;;8.07;;
739;SDS011;354;42.694;23.336;2023-06-04T03:49:45;9.53;;;8.63;;
739;SDS011;354;42.694;23.336;2023-06-04T03:52:12;8.30;;;7.70;;
739;SDS011;354;42.694;23.336;2023-06-04T03:54:46;7.67;;;7.17;;
739;SDS011;354;42.694;23.336;2023-06-04T03:57:32;11.13;;;10.07;;
739;SDS011;354;42.694;23.336;2023-06-04T04:00:21;7.97;;;7.37;;
739;SDS011;354;42.694;23.336;2023-06-04T04:03:07;7.90;;;7.30;;
739;SDS011;354;42.694;23.336;2023-06-04T04:05:56;8.13;;;7.53;;
739;SDS011;354;42.694;23.336;2023-06-04T04:08:31;8.53;;;7.83;;
739;SDS011;354;42.694;23.336;2023-06-04T04:11:16;8.60;;;7.90;;
739;SDS011;354;42.694;23.336;2023-06-04T04:14:07;8.17;;;7.67;;
739;SDS011;354;42.694;23.336;2023-06-04T04:16:53;9.03;;;8.33;;
739;SDS011;354;42.694;23.336;2023-06-04T04:19:25;9.07;;;8.37;;
739;SDS011;354;42.694;23.336;2023-06-04T04:22:11;8.93;;;8.30;;
739;SDS011;354;42.694;23.336;2023-06-04T04:24:58;9.67;;;8.97;;
739;SDS011;354;42.694;23.336;2023-06-04T04:27:28;9.90;;;9.23;;
739;SDS011;354;42.694;23.336;2023-06-04T04:30:14;9.80;;;9.13;;
739;SDS011;354;42.694;23.336;2023-06-04T04:33:16;9.10;;;8.50;;
739;SDS011;354;42.694;23.336;2023-06-04T04:35:42;9.23;;;8.57;;
739;SDS011;354;42.694;23.336;2023-06-04T04:38:09;10.27;;;9.37;;
739;SDS011;354;42.694;23.336;2023-06-04T04:40:41;8.80;;;8.10;;
739;SDS011;354;42.694;23.336;2023-06-04T04:43:08;9.10;;;8.43;;
739;SDS011;354;42.694;23.336;2023-06-04T04:46:13;9.43;;;8.83;;
739;SDS011;354;42.694;23.336;2023-06-04T04:48:47;9.27;;;8.68;;
739;SDS011;354;42.694;23.336;2023-06-04T04:51:33;9.63;;;8.73;;
739;SDS011;354;42.694;23.336;2023-06-04T04:54:54;10.03;;;9.30;;
739;SDS011;354;42.694;23.336;2023-06-04T04:57:24;10.67;;;9.77;;
739;SDS011;354;42.694;23.336;2023-06-04T05:00:25;10.63;;;9.73;;
739;SDS011;354;42.694;23.336;2023-06-04T05:02:54;9.03;;;8.37;;
739;SDS011;354;42.694;23.336;2023-06-04T05:05:28;9.23;;;8.52;;
739;SDS011;354;42.694;23.336;2023-06-04T05:08:14;9.60;;;8.90;;
739;SDS011;354;42.694;23.336;2023-06-04T05:11:24;8.32;;;7.65;;
739;SDS011;354;42.694;23.336;2023-06-04T05:13:58;10.13;;;9.13;;
739;SDS011;354;42.694;23.336;2023-06-04T05:16:25;10.23;;;9.33;;
739;SDS011;354;42.694;23.336;2023-06-04T05:19:14;10.77;;;9.70;;
739;SDS011;354;42.694;23.336;2023-06-04T05:22:02;9.83;;;9.03;;
739;SDS011;354;42.694;23.336;2023-06-04T05:24:58;9.18;;;8.40;;
739;SDS011;354;42.694;23.336;2023-06-04T05:28:25;10.13;;;9.40;;
739;SDS011;354;42.694;23.336;2023-06-04T05:30:52;10.20;;;9.40;;
739;SDS011;354;42.694;23.336;2023-06-04T05:33:25;9.80;;;8.93;;
739;SDS011;354;42.694;23.336;2023-06-04T05:36:15;9.63;;;8.73;;
739;SDS011;354;42.694;23.336;2023-06-04T05:38:49;10.45;;;9.68;;
739;SDS011;354;42.694;23.336;2023-06-04T05:41:36;9.38;;;8.65;;
739;SDS011;354;42.694;23.336;2023-06-04T05:44:06;9.00;;;8.30;;
739;SDS011;354;42.694;23.336;2023-06-04T05:47:01;9.82;;;9.00;;
739;SDS011;354;42.694;23.336;2023-06-04T05:49:28;9.18;;;8.57;;
739;SDS011;354;42.694;23.336;2023-06-04T05:52:14;9.27;;;8.48;;
739;SDS011;354;42.694;23.336;2023-06-04T05:55:02;9.60;;;8.70;;
739;SDS011;354;42.694;23.336;2023-06-04T05:57:48;9.93;;;8.93;;
739;SDS011;354;42.694;23.336;2023-06-04T06:00:34;8.52;;;7.82;;
739;SDS011;354;42.694;23.336;2023-06-04T06:03:38;9.60;;;8.85;;
739;SDS011;354;42.694;23.336;2023-06-04T06:06:24;10.15;;;9.45;;
739;SDS011;354;42.694;23.336;2023-06-04T06:08:59;9.60;;;8.85;;
739;SDS011;354;42.694;23.336;2023-06-04T06:11:44;10.00;;;9.30;;
739;SDS011;354;42.694;23.336;2023-06-04T06:14:34;10.75;;;9.82;;
739;SDS011;354;42.694;23.336;2023-06-04T06:17:08;9.10;;;8.40;;
739;SDS011;354;42.694;23.336;2023-06-04T06:20:15;11.45;;;10.57;;
739;SDS011;354;42.694;23.336;2023-06-04T06:23:21;9.73;;;8.82;;
739;SDS011;354;42.694;23.336;2023-06-04T06:26:10;13.13;;;11.60;;
739;SDS011;354;42.694;23.336;2023-06-04T06:29:11;10.75;;;9.85;;
739;SDS011;354;42.694;23.336;2023-06-04T06:31:45;12.07;;;10.98;;
739;SDS011;354;42.694;23.336;2023-06-04T06:34:34;12.65;;;11.55;;
739;SDS011;354;42.694;23.336;2023-06-04T06:37:02;12.80;;;11.70;;
739;SDS011;354;42.694;23.336;2023-06-04T06:39:51;9.38;;;8.68;;
739;SDS011;354;42.694;23.336;2023-06-04T06:42:57;9.88;;;8.98;;
739;SDS011;354;42.694;23.336;2023-06-04T06:45:45;11.80;;;10.70;;
739;SDS011;354;42.694;23.336;2023-06-04T06:48:18;9.52;;;8.73;;
739;SDS011;354;42.694;23.336;2023-06-04T06:51:25;10.13;;;8.63;;
739;SDS011;354;42.694;23.336;2023-06-04T06:54:10;9.40;;;8.65;;
739;SDS011;354;42.694;23.336;2023-06-04T06:56:40;9.88;;;9.02;;
739;SDS011;354;42.694;23.336;2023-06-04T06:59:46;9.40;;;8.60;;
739;SDS011;354;42.694;23.336;2023-06-04T07:02:31;9.05;;;8.45;;
739;SDS011;354;42.694;23.336;2023-06-04T07:05:22;9.38;;;8.50;;
739;SDS011;354;42.694;23.336;2023-06-04T07:08:08;8.60;;;7.88;;
739;SDS011;354;42.694;23.336;2023-06-04T07:11:18;9.52;;;8.73;;
739;SDS011;354;42.694;23.336;2023-06-04T07:13:51;9.48;;;8.57;;
739;SDS011;354;42.694;23.336;2023-06-04T07:16:56;9.65;;;8.95;;
739;SDS011;354;42.694;23.336;2023-06-04T07:19:23;9.30;;;8.60;;
739;SDS011;354;42.694;23.336;2023-06-04T07:22:03;8.52;;;7.93;;
739;SDS011;354;42.694;23.336;2023-06-04T07:24:51;8.88;;;8.27;;
739;SDS011;354;42.694;23.336;2023-06-04T07:27:56;8.82;;;8.23;;
739;SDS011;354;42.694;23.336;2023-06-04T07:31:10;9.70;;;9.00;;
739;SDS011;354;42.694;23.336;2023-06-04T07:33:56;9.35;;;8.48;;
739;SDS011;354;42.694;23.336;2023-06-04T07:36:24;9.90;;;9.00;;
739;SDS011;354;42.694;23.336;2023-06-04T07:38:50;8.75;;;7.90;;
739;SDS011;354;42.694;23.336;2023-06-04T07:41:44;9.57;;;8.75;;
739;SDS011;354;42.694;23.336;2023-06-04T07:44:11;9.40;;;8.73;;
739;SDS011;354;42.694;23.336;2023-06-04T07:46:41;10.02;;;9.13;;
739;SDS011;354;42.694;23.336;2023-06-04T07:49:29;9.32;;;8.63;;
739;SDS011;354;42.694;23.336;2023-06-04T07:51:55;10.27;;;9.40;;
739;SDS011;354;42.694;23.336;2023-06-04T07:54:52;9.52;;;8.82;;
739;SDS011;354;42.694;23.336;2023-06-04T07:57:41;10.70;;;8.82;;
739;SDS011;354;42.694;23.336;2023-06-04T08:01:08;9.38;;;8.60;;
739;SDS011;354;42.694;23.336;2023-06-04T08:04:16;9.50;;;8.80;;
739;SDS011;354;42.694;23.336;2023-06-04T08:07:53;9.57;;;8.73;;
739;SDS011;354;42.694;23.336;2023-06-04T08:11:19;9.93;;;9.02;;
739;SDS011;354;42.694;23.336;2023-06-04T08:14:46;17.27;;;15.55;;
739;SDS011;354;42.694;23.336;2023-06-04T08:18:11;25.23;;;22.25;;
739;SDS011;354;42.694;23.336;2023-06-04T08:21:24;13.88;;;12.68;;
739;SDS011;354;42.694;23.336;2023-06-04T08:24:43;10.80;;;10.00;;
739;SDS011;354;42.694;23.336;2023-06-04T08:28:09;9.90;;;9.20;;
739;SDS011;354;42.694;23.336;2023-06-04T08:31:16;10.63;;;9.65;;
739;SDS011;354;42.694;23.336;2023-06-04T08:34:41;24.67;;;22.33;;
739;SDS011;354;42.694;23.336;2023-06-04T08:38:07;11.32;;;10.35;;
739;SDS011;354;42.694;23.336;2023-06-04T08:41:41;10.38;;;9.38;;
739;SDS011;354;42.694;23.336;2023-06-04T08:45:07;10.90;;;9.85;;
739;SDS011;354;42.694;23.336;2023-06-04T08:48:31;11.48;;;10.45;;
739;SDS011;354;42.694;23.336;2023-06-04T08:51:38;11.30;;;10.15;;
739;SDS011;354;42.694;23.336;2023-06-04T08:54:50;11.38;;;10.25;;
739;SDS011;354;42.694;23.336;2023-06-04T08:58:19;11.73;;;10.63;;
739;SDS011;354;42.694;23.336;2023-06-04T09:01:53;13.40;;;12.00;;
739;SDS011;354;42.694;23.336;2023-06-04T09:04:58;18.45;;;16.42;;
739;SDS011;354;42.694;23.336;2023-06-04T09:08:27;10.18;;;9.38;;
739;SDS011;354;42.694;23.336;2023-06-04T09:11:55;12.25;;;11.05;;
739;SDS011;354;42.694;23.336;2023-06-04T09:15:21;10.95;;;9.85;;
739;SDS011;354;42.694;23.336;2023-06-04T09:18:09;12.45;;;11.27;;
739;SDS011;354;42.694;23.336;2023-06-04T09:21:34;12.07;;;10.63;;
739;SDS011;354;42.694;23.336;2023-06-04T09:24:44;11.65;;;10.70;;
739;SDS011;354;42.694;23.336;2023-06-04T09:28:12;11.68;;;10.68;;
739;SDS011;354;42.694;23.336;2023-06-04T09:31:44;29.90;;;27.17;;
739;SDS011;354;42.694;23.336;2023-06-04T09:35:13;14.38;;;13.07;;
739;SDS011;354;42.694;23.336;2023-06-04T09:37:41;11.80;;;10.80;;
739;SDS011;354;42.694;23.336;2023-06-04T09:40:07;16.63;;;15.02;;
739;SDS011;354;42.694;23.336;2023-06-04T09:42:54;12.30;;;11.20;;
739;SDS011;354;42.694;23.336;2023-06-04T09:46:25;13.38;;;11.88;;
739;SDS011;354;42.694;23.336;2023-06-04T09:50:00;13.60;;;11.85;;
739;SDS011;354;42.694;23.336;2023-06-04T09:53:31;12.02;;;10.93;;
739;SDS011;354;42.694;23.336;2023-06-04T09:56:24;11.80;;;10.77;;
739;SDS011;354;42.694;23.336;2023-06-04T09:58:53;13.98;;;12.57;;
739;SDS011;354;42.694;23.336;2023-06-04T10:01:58;12.68;;;11.57;;
739;SDS011;354;42.694;23.336;2023-06-04T10:05:25;12.80;;;11.57;;
739;SDS011;354;42.694;23.336;2023-06-04T10:09:05;12.20;;;11.15;;
739;SDS011;354;42.694;23.336;2023-06-04T10:12:21;10.88;;;9.98;;
739;SDS011;354;42.694;23.336;2023-06-04T10:15:46;12.60;;;11.38;;
739;SDS011;354;42.694;23.336;2023-06-04T10:19:18;11.13;;;10.10;;
739;SDS011;354;42.694;23.336;2023-06-04T10:22:07;16.05;;;14.65;;
739;SDS011;354;42.694;23.336;2023-06-04T10:24:39;11.73;;;10.73;;
739;SDS011;354;42.694;23.336;2023-06-04T10:27:48;10.55;;;9.75;;
739;SDS011;354;42.694;23.336;2023-06-04T10:30:53;11.07;;;10.00;;
739;SDS011;354;42.694;23.336;2023-06-04T10:33:44;11.68;;;10.40;;
739;SDS011;354;42.694;23.336;2023-06-04T10:36:42;13.00;;;10.60;;
739;SDS011;354;42.694;23.336;2023-06-04T10:40:07;13.05;;;11.48;;
739;SDS011;354;42.694;23.336;2023-06-04T10:43:16;12.40;;;11.30;;
739;SDS011;354;42.694;23.336;2023-06-04T10:46:22;14.77;;;13.48;;
739;SDS011;354;42.694;23.336;2023-06-04T10:49:27;13.48;;;12.20;;
739;SDS011;354;42.694;23.336;2023-06-04T10:52:33;12.77;;;11.52;;
739;SDS011;354;42.694;23.336;2023-06-04T10:55:20;11.40;;;10.50;;
739;SDS011;354;42.694;23.336;2023-06-04T10:58:38;10.85;;;9.93;;
739;SDS011;354;42.694;23.336;2023-06-04T11:01:45;10.75;;;9.95;;
739;SDS011;354;42.694;23.336;2023-06-04T11:05:03;10.82;;;10.00;;
739;SDS011;354;42.694;23.336;2023-06-04T11:07:47;12.15;;;11.23;;
739;SDS011;354;42.694;23.336;2023-06-04T11:11:13;12.23;;;11.13;;
739;SDS011;354;42.694;23.336;2023-06-04T11:14:11;11.30;;;10.18;;
739;SDS011;354;42.694;23.336;2023-06-04T11:17:18;12.02;;;11.02;;
739;SDS011;354;42.694;23.336;2023-06-04T11:20:04;10.52;;;9.82;;
739;SDS011;354;42.694;23.336;2023-06-04T11:22:40;11.35;;;10.55;;
739;SDS011;354;42.694;23.336;2023-06-04T11:25:28;12.65;;;11.65;;
739;SDS011;354;42.694;23.336;2023-06-04T11:28:38;11.05;;;10.25;;
739;SDS011;354;42.694;23.336;2023-06-04T11:31:44;11.15;;;10.25;;
739;SDS011;354;42.694;23.336;2023-06-04T11:35:01;11.55;;;10.65;;
739;SDS011;354;42.694;23.336;2023-06-04T11:37:55;11.38;;;10.45;;
739;SDS011;354;42.694;23.336;2023-06-04T11:41:07;11.15;;;10.35;;
739;SDS011;354;42.694;23.336;2023-06-04T11:43:56;16.33;;;14.80;;
739;SDS011;354;42.694;23.336;2023-06-04T11:46:35;12.23;;;11.23;;
739;SDS011;354;42.694;23.336;2023-06-04T11:49:24;11.43;;;10.48;;
739;SDS011;354;42.694;23.336;2023-06-04T11:52:11;13.48;;;12.02;;
739;SDS011;354;42.694;23.336;2023-06-04T11:55:36;12.88;;;11.77;;
739;SDS011;354;42.694;23.336;2023-06-04T11:58:21;12.68;;;11.48;;
739;SDS011;354;42.694;23.336;2023-06-04T12:01:29;11.48;;;10.63;;
739;SDS011;354;42.694;23.336;2023-06-04T12:04:54;13.50;;;12.52;;
739;SDS011;354;42.694;23.336;2023-06-04T12:08:05;15.32;;;13.35;;
739;SDS011;354;42.694;23.336;2023-06-04T12:10:59;14.52;;;13.32;;
739;SDS011;354;42.694;23.336;2023-06-04T12:13:49;25.10;;;15.63;;
739;SDS011;354;42.694;23.336;2023-06-04T12:17:15;12.90;;;11.82;;
739;SDS011;354;42.694;23.336;2023-06-04T12:23:21;14.38;;;13.07;;
739;SDS011;354;42.694;23.336;2023-06-04T12:26:26;13.25;;;12.13;;
739;SDS011;354;42.694;23.336;2023-06-04T12:29:29;12.85;;;11.80;;
739;SDS011;354;42.694;23.336;2023-06-04T12:32:22;12.63;;;11.68;;
739;SDS011;354;42.694;23.336;2023-06-04T12:34:50;15.80;;;14.32;;
739;SDS011;354;42.694;23.336;2023-06-04T12:37:23;13.55;;;12.52;;
739;SDS011;354;42.694;23.336;2023-06-04T12:40:09;12.00;;;10.93;;
739;SDS011;354;42.694;23.336;2023-06-04T12:43:20;12.98;;;11.88;;
739;SDS011;354;42.694;23.336;2023-06-04T12:45:47;12.38;;;11.25;;
739;SDS011;354;42.694;23.336;2023-06-04T12:48:33;13.32;;;12.23;;
739;SDS011;354;42.694;23.336;2023-06-04T12:51:35;12.50;;;11.50;;
739;SDS011;354;42.694;23.336;2023-06-04T12:54:41;13.82;;;12.25;;
739;SDS011;354;42.694;23.336;2023-06-04T12:57:47;12.15;;;11.15;;
739;SDS011;354;42.694;23.336;2023-06-04T13:00:53;11.52;;;10.63;;
739;SDS011;354;42.694;23.336;2023-06-04T13:03:54;12.48;;;11.30;;
739;SDS011;354;42.694;23.336;2023-06-04T13:07:01;11.80;;;10.90;;
739;SDS011;354;42.694;23.336;2023-06-04T13:10:08;12.18;;;11.30;;
739;SDS011;354;42.694;23.336;2023-06-04T13:12:53;13.15;;;11.95;;
739;SDS011;354;42.694;23.336;2023-06-04T13:16:01;12.95;;;11.85;;
739;SDS011;354;42.694;23.336;2023-06-04T13:18:55;14.30;;;13.10;;
739;SDS011;354;42.694;23.336;2023-06-04T13:21:23;12.80;;;11.80;;
739;SDS011;354;42.694;23.336;2023-06-04T13:24:16;12.45;;;11.45;;
739;SDS011;354;42.694;23.336;2023-06-04T13:27:21;11.68;;;10.55;;
739;SDS011;354;42.694;23.336;2023-06-04T13:30:26;12.27;;;11.27;;
739;SDS011;354;42.694;23.336;2023-06-04T13:32:56;10.77;;;9.98;;
739;SDS011;354;42.694;23.336;2023-06-04T13:35:24;11.98;;;11.07;;
739;SDS011;354;42.694;23.336;2023-06-04T13:37:51;12.30;;;11.10;;
739;SDS011;354;42.694;23.336;2023-06-04T13:40:57;11.73;;;10.73;;
739;SDS011;354;42.694;23.336;2023-06-04T13:43:38;11.38;;;10.18;;
739;SDS011;354;42.694;23.336;2023-06-04T13:46:24;10.75;;;9.85;;
739;SDS011;354;42.694;23.336;2023-06-04T13:49:28;10.20;;;9.40;;
739;SDS011;354;42.694;23.336;2023-06-04T13:52:17;10.77;;;9.95;;
739;SDS011;354;42.694;23.336;2023-06-04T13:55:42;12.18;;;11.02;;
739;SDS011;354;42.694;23.336;2023-06-04T13:58:29;11.45;;;10.55;;
739;SDS011;354;42.694;23.336;2023-06-04T14:01:14;11.43;;;10.63;;
739;SDS011;354;42.694;23.336;2023-06-04T14:03:48;11.00;;;10.20;;
739;SDS011;354;42.694;23.336;2023-06-04T14:06:56;11.60;;;10.60;;
739;SDS011;354;42.694;23.336;2023-06-04T14:09:41;11.20;;;10.20;;
739;SDS011;354;42.694;23.336;2023-06-04T14:13:07;11.90;;;11.00;;
739;SDS011;354;42.694;23.336;2023-06-04T14:15:56;13.15;;;11.75;;
739;SDS011;354;42.694;23.336;2023-06-04T14:19:16;11.90;;;10.80;;
739;SDS011;354;42.694;23.336;2023-06-04T14:22:23;11.07;;;10.07;;
739;SDS011;354;42.694;23.336;2023-06-04T14:25:30;15.80;;;14.40;;
739;SDS011;354;42.694;23.336;2023-06-04T14:28:11;14.52;;;11.65;;
739;SDS011;354;42.694;23.336;2023-06-04T14:30:41;11.50;;;10.48;;
739;SDS011;354;42.694;23.336;2023-06-04T14:33:39;11.23;;;10.15;;
739;SDS011;354;42.694;23.336;2023-06-04T14:36:49;48.55;;;24.17;;
739;SDS011;354;42.694;23.336;2023-06-04T14:39:56;13.68;;;11.40;;
739;SDS011;354;42.694;23.336;2023-06-04T14:43:08;11.98;;;11.07;;
739;SDS011;354;42.694;23.336;2023-06-04T14:46:01;12.02;;;11.00;;
739;SDS011;354;42.694;23.336;2023-06-04T14:48:28;12.18;;;11.07;;
739;SDS011;354;42.694;23.336;2023-06-04T14:51:41;11.98;;;10.95;;
739;SDS011;354;42.694;23.336;2023-06-04T14:54:49;23.45;;;21.23;;
739;SDS011;354;42.694;23.336;2023-06-04T14:57:46;12.38;;;11.20;;
739;SDS011;354;42.694;23.336;2023-06-04T15:00:54;11.95;;;11.02;;
739;SDS011;354;42.694;23.336;2023-06-04T15:03:30;28.02;;;14.90;;
739;SDS011;354;42.694;23.336;2023-06-04T15:06:16;12.82;;;11.77;;
739;SDS011;354;42.694;23.336;2023-06-04T15:09:04;12.82;;;11.73;;
739;SDS011;354;42.694;23.336;2023-06-04T15:12:10;15.30;;;13.70;;
739;SDS011;354;42.694;23.336;2023-06-04T15:15:16;14.60;;;13.30;;
739;SDS011;354;42.694;23.336;2023-06-04T15:18:25;13.32;;;12.15;;
739;SDS011;354;42.694;23.336;2023-06-04T15:21:35;18.38;;;16.55;;
739;SDS011;354;42.694;23.336;2023-06-04T15:24:41;22.02;;;19.70;;
739;SDS011;354;42.694;23.336;2023-06-04T15:27:28;17.63;;;15.23;;
739;SDS011;354;42.694;23.336;2023-06-04T15:30:38;14.07;;;12.88;;
739;SDS011;354;42.694;23.336;2023-06-04T15:33:51;13.52;;;12.32;;
739;SDS011;354;42.694;23.336;2023-06-04T15:37:13;13.45;;;12.07;;
739;SDS011;354;42.694;23.336;2023-06-04T15:40:18;13.15;;;11.90;;
739;SDS011;354;42.694;23.336;2023-06-04T15:43:27;13.10;;;12.10;;
739;SDS011;354;42.694;23.336;2023-06-04T15:46:38;16.98;;;15.43;;
739;SDS011;354;42.694;23.336;2023-06-04T15:50:04;13.52;;;12.27;;
739;SDS011;354;42.694;23.336;2023-06-04T15:52:58;13.90;;;12.70;;
739;SDS011;354;42.694;23.336;2023-06-04T15:55:43;12.75;;;11.45;;
739;SDS011;354;42.694;23.336;2023-06-04T15:58:50;12.88;;;11.60;;
739;SDS011;354;42.694;23.336;2023-06-04T16:01:44;20.25;;;18.45;;
739;SDS011;354;42.694;23.336;2023-06-04T16:04:51;14.82;;;13.48;;
739;SDS011;354;42.694;23.336;2023-06-04T16:07:21;19.92;;;17.95;;
739;SDS011;354;42.694;23.336;2023-06-04T16:10:27;13.48;;;12.15;;
739;SDS011;354;42.694;23.336;2023-06-04T16:13:37;14.45;;;11.55;;
739;SDS011;354;42.694;23.336;2023-06-04T16:17:02;13.02;;;11.93;;
739;SDS011;354;42.694;23.336;2023-06-04T16:20:27;15.45;;;13.85;;
739;SDS011;354;42.694;23.336;2023-06-04T16:23:32;16.95;;;15.20;;
739;SDS011;354;42.694;23.336;2023-06-04T16:26:07;19.38;;;17.77;;
739;SDS011;354;42.694;23.336;2023-06-04T16:29:13;18.08;;;16.42;;
739;SDS011;354;42.694;23.336;2023-06-04T16:32:20;16.35;;;15.05;;
739;SDS011;354;42.694;23.336;2023-06-04T16:35:09;15.52;;;14.23;;
739;SDS011;354;42.694;23.336;2023-06-04T16:37:36;17.40;;;15.82;;
739;SDS011;354;42.694;23.336;2023-06-04T16:40:43;14.75;;;13.52;;
739;SDS011;354;42.694;23.336;2023-06-04T16:43:48;14.82;;;13.32;;
739;SDS011;354;42.694;23.336;2023-06-04T16:46:53;16.45;;;14.80;;
739;SDS011;354;42.694;23.336;2023-06-04T16:49:47;12.25;;;11.30;;
739;SDS011;354;42.694;23.336;2023-06-04T16:52:33;18.13;;;16.25;;
739;SDS011;354;42.694;23.336;2023-06-04T16:55:04;17.38;;;15.65;;
739;SDS011;354;42.694;23.336;2023-06-04T16:57:52;15.57;;;14.02;;
739;SDS011;354;42.694;23.336;2023-06-04T17:01:07;13.57;;;11.15;;
739;SDS011;354;42.694;23.336;2023-06-04T17:04:16;13.15;;;11.23;;
739;SDS011;354;42.694;23.336;2023-06-04T17:07:06;16.65;;;14.02;;
739;SDS011;354;42.694;23.336;2023-06-04T17:10:03;12.15;;;10.90;;
739;SDS011;354;42.694;23.336;2023-06-04T17:13:12;13.93;;;12.63;;
739;SDS011;354;42.694;23.336;2023-06-04T17:16:39;18.20;;;16.27;;
739;SDS011;354;42.694;23.336;2023-06-04T17:19:49;16.50;;;14.55;;
739;SDS011;354;42.694;23.336;2023-06-04T17:22:59;16.17;;;14.80;;
739;SDS011;354;42.694;23.336;2023-06-04T17:26:29;14.45;;;13.13;;
739;SDS011;354;42.694;23.336;2023-06-04T17:29:57;12.30;;;11.23;;
739;SDS011;354;42.694;23.336;2023-06-04T17:33:24;13.35;;;12.15;;
739;SDS011;354;42.694;23.336;2023-06-04T17:36:33;13.35;;;12.00;;
739;SDS011;354;42.694;23.336;2023-06-04T17:39:59;15.00;;;13.60;;
739;SDS011;354;42.694;23.336;2023-06-04T17:43:27;15.48;;;13.32;;
739;SDS011;354;42.694;23.336;2023-06-04T17:46:52;18.30;;;16.27;;
739;SDS011;354;42.694;23.336;2023-06-04T17:49:57;34.20;;;30.20;;
739;SDS011;354;42.694;23.336;2023-06-04T17:53:18;20.27;;;18.05;;
739;SDS011;354;42.694;23.336;2023-06-04T17:56:45;19.00;;;17.10;;
739;SDS011;354;42.694;23.336;2023-06-04T18:00:13;18.38;;;16.45;;
739;SDS011;354;42.694;23.336;2023-06-04T18:03:19;20.98;;;18.90;;
739;SDS011;354;42.694;23.336;2023-06-04T18:06:16;16.00;;;14.57;;
739;SDS011;354;42.694;23.336;2023-06-04T18:09:01;18.25;;;16.33;;
739;SDS011;354;42.694;23.336;2023-06-04T18:12:06;11.77;;;10.68;;
739;SDS011;354;42.694;23.336;2023-06-04T18:15:14;10.82;;;9.82;;
739;SDS011;354;42.694;23.336;2023-06-04T18:18:24;11.80;;;10.73;;